sensor_id;sensor_type;location;lat;lon;timestamp;P1;durP1;ratioP1;P2;durP2;ratioP2
40367;SDS011;26075;43.320;21.920;2023-11-19T00:00:32;8.65;;;4.45;;
40367;SDS011;26075;43.320;21.920;2023-11-19T00:05:33;7.63;;;4.53;;
40367;SDS011;26075;43.320;21.920;2023-11-19T00:10:34;9.18;;;5.07;;
40367;SDS011;26075;43.320;21.920;2023-11-19T00:15:35;10.20;;;4.88;;
40367;SDS011;26075;43.320;21.920;2023-11-19T00:20:36;8.57;;;4.78;;
40367;SDS011;26075;43.320;21.920;2023-11-19T00:25:37;7.63;;;5.00;;
40367;SDS011;26075;43.320;21.920;2023-11-19T00:30:39;7.05;;;4.82;;
40367;SDS011;26075;43.320;21.920;2023-11-19T00:35:41;8.02;;;5.70;;
40367;SDS011;26075;43.320;21.920;2023-11-19T00:40:42;8.85;;;5.60;;
40367;SDS011;26075;43.320;21.920;2023-11-19T00:45:44;8.93;;;5.45;;
40367;SDS011;26075;43.320;21.920;2023-11-19T00:50:45;8.77;;;5.55;;
40367;SDS011;26075;43.320;21.920;2023-11-19T00:55:46;9.65;;;5.35;;
40367;SDS011;26075;43.320;21.920;2023-11-19T01:00:47;8.75;;;5.97;;
40367;SDS011;26075;43.320;21.920;2023-11-19T01:05:48;9.88;;;5.78;;
40367;SDS011;26075;43.320;21.920;2023-11-19T01:10:50;9.45;;;5.20;;
40367;SDS011;26075;43.320;21.920;2023-11-19T01:15:51;11.25;;;5.80;;
40367;SDS011;26075;43.320;21.920;2023-11-19T01:20:52;9.43;;;5.53;;
40367;SDS011;26075;43.320;21.920;2023-11-19T01:25:53;10.18;;;6.03;;
40367;SDS011;26075;43.320;21.920;2023-11-19T01:30:54;10.63;;;6.45;;
40367;SDS011;26075;43.320;21.920;2023-11-19T01:35:55;9.27;;;6.18;;
40367;SDS011;26075;43.320;21.920;2023-11-19T01:40:58;7.30;;;5.03;;
40367;SDS011;26075;43.320;21.920;2023-11-19T01:46:00;7.30;;;4.97;;
40367;SDS011;26075;43.320;21.920;2023-11-19T01:51:03;12.07;;;6.53;;
40367;SDS011;26075;43.320;21.920;2023-11-19T01:56:05;8.45;;;5.20;;
40367;SDS011;26075;43.320;21.920;2023-11-19T02:01:11;8.88;;;5.60;;
40367;SDS011;26075;43.320;21.920;2023-11-19T02:06:12;7.88;;;5.18;;
40367;SDS011;26075;43.320;21.920;2023-11-19T02:11:13;9.50;;;6.82;;
40367;SDS011;26075;43.320;21.920;2023-11-19T02:16:14;10.55;;;5.53;;
40367;SDS011;26075;43.320;21.920;2023-11-19T02:21:16;8.95;;;5.53;;
40367;SDS011;26075;43.320;21.920;2023-11-19T02:26:19;8.55;;;5.90;;
40367;SDS011;26075;43.320;21.920;2023-11-19T02:31:22;7.40;;;5.22;;
40367;SDS011;26075;43.320;21.920;2023-11-19T02:36:23;9.40;;;5.95;;
40367;SDS011;26075;43.320;21.920;2023-11-19T02:41:24;8.70;;;5.88;;
40367;SDS011;26075;43.320;21.920;2023-11-19T02:46:25;8.65;;;5.88;;
40367;SDS011;26075;43.320;21.920;2023-11-19T02:51:27;10.73;;;6.43;;
40367;SDS011;26075;43.320;21.920;2023-11-19T02:56:28;9.45;;;6.35;;
40367;SDS011;26075;43.320;21.920;2023-11-19T03:01:34;8.32;;;6.18;;
40367;SDS011;26075;43.320;21.920;2023-11-19T03:06:36;8.18;;;6.07;;
40367;SDS011;26075;43.320;21.920;2023-11-19T03:11:37;8.55;;;5.93;;
40367;SDS011;26075;43.320;21.920;2023-11-19T03:16:39;9.75;;;6.30;;
40367;SDS011;26075;43.320;21.920;2023-11-19T03:21:40;8.15;;;6.30;;
40367;SDS011;26075;43.320;21.920;2023-11-19T03:26:41;8.95;;;6.20;;
40367;SDS011;26075;43.320;21.920;2023-11-19T03:31:42;11.65;;;7.80;;
40367;SDS011;26075;43.320;21.920;2023-11-19T03:36:44;11.88;;;6.97;;
40367;SDS011;26075;43.320;21.920;2023-11-19T03:41:45;9.48;;;6.90;;
40367;SDS011;26075;43.320;21.920;2023-11-19T03:46:49;9.48;;;6.53;;
40367;SDS011;26075;43.320;21.920;2023-11-19T03:51:50;11.20;;;6.90;;
40367;SDS011;26075;43.320;21.920;2023-11-19T03:56:51;9.57;;;6.22;;
40367;SDS011;26075;43.320;21.920;2023-11-19T04:01:53;11.15;;;6.30;;
40367;SDS011;26075;43.320;21.920;2023-11-19T04:06:56;10.07;;;6.03;;
40367;SDS011;26075;43.320;21.920;2023-11-19T04:11:58;9.40;;;5.95;;
40367;SDS011;26075;43.320;21.920;2023-11-19T04:17:00;9.02;;;6.20;;
40367;SDS011;26075;43.320;21.920;2023-11-19T04:22:01;8.82;;;5.95;;
40367;SDS011;26075;43.320;21.920;2023-11-19T04:27:02;8.45;;;6.45;;
40367;SDS011;26075;43.320;21.920;2023-11-19T04:32:04;8.80;;;6.50;;
40367;SDS011;26075;43.320;21.920;2023-11-19T04:37:05;9.25;;;6.35;;
40367;SDS011;26075;43.320;21.920;2023-11-19T04:42:06;10.25;;;6.43;;
40367;SDS011;26075;43.320;21.920;2023-11-19T04:47:07;9.38;;;6.15;;
40367;SDS011;26075;43.320;21.920;2023-11-19T04:52:10;9.52;;;6.90;;
40367;SDS011;26075;43.320;21.920;2023-11-19T04:57:12;8.60;;;5.78;;
40367;SDS011;26075;43.320;21.920;2023-11-19T05:02:13;9.77;;;6.70;;
40367;SDS011;26075;43.320;21.920;2023-11-19T05:07:15;9.55;;;6.60;;
40367;SDS011;26075;43.320;21.920;2023-11-19T05:12:16;8.57;;;6.32;;
40367;SDS011;26075;43.320;21.920;2023-11-19T05:17:18;10.43;;;6.47;;
40367;SDS011;26075;43.320;21.920;2023-11-19T05:22:19;9.55;;;6.57;;
40367;SDS011;26075;43.320;21.920;2023-11-19T05:27:20;10.50;;;6.82;;
40367;SDS011;26075;43.320;21.920;2023-11-19T05:32:23;9.10;;;6.43;;
40367;SDS011;26075;43.320;21.920;2023-11-19T05:37:24;9.32;;;6.00;;
40367;SDS011;26075;43.320;21.920;2023-11-19T05:42:26;9.40;;;6.03;;
40367;SDS011;26075;43.320;21.920;2023-11-19T05:47:27;9.05;;;6.13;;
40367;SDS011;26075;43.320;21.920;2023-11-19T05:52:28;10.20;;;7.20;;
40367;SDS011;26075;43.320;21.920;2023-11-19T05:57:33;11.68;;;5.82;;
40367;SDS011;26075;43.320;21.920;2023-11-19T06:02:34;13.63;;;7.00;;
40367;SDS011;26075;43.320;21.920;2023-11-19T06:07:37;8.88;;;6.22;;
40367;SDS011;26075;43.320;21.920;2023-11-19T06:12:39;9.65;;;6.60;;
40367;SDS011;26075;43.320;21.920;2023-11-19T06:17:41;13.80;;;9.70;;
40367;SDS011;26075;43.320;21.920;2023-11-19T06:22:42;12.30;;;7.85;;
40367;SDS011;26075;43.320;21.920;2023-11-19T06:27:45;12.63;;;7.70;;
40367;SDS011;26075;43.320;21.920;2023-11-19T06:32:46;10.73;;;7.22;;
40367;SDS011;26075;43.320;21.920;2023-11-19T06:37:48;9.15;;;6.72;;
40367;SDS011;26075;43.320;21.920;2023-11-19T06:42:49;15.65;;;9.85;;
40367;SDS011;26075;43.320;21.920;2023-11-19T06:47:52;18.65;;;13.30;;
40367;SDS011;26075;43.320;21.920;2023-11-19T06:52:53;14.85;;;10.85;;
40367;SDS011;26075;43.320;21.920;2023-11-19T06:57:54;10.25;;;7.30;;
40367;SDS011;26075;43.320;21.920;2023-11-19T07:02:55;10.55;;;7.38;;
40367;SDS011;26075;43.320;21.920;2023-11-19T07:07:56;12.40;;;7.95;;
40367;SDS011;26075;43.320;21.920;2023-11-19T07:12:57;13.23;;;7.32;;
40367;SDS011;26075;43.320;21.920;2023-11-19T07:17:58;9.10;;;6.63;;
40367;SDS011;26075;43.320;21.920;2023-11-19T07:23:00;10.93;;;7.00;;
40367;SDS011;26075;43.320;21.920;2023-11-19T07:28:01;9.65;;;7.10;;
40367;SDS011;26075;43.320;21.920;2023-11-19T07:33:04;9.13;;;6.70;;
40367;SDS011;26075;43.320;21.920;2023-11-19T07:38:05;9.10;;;6.63;;
40367;SDS011;26075;43.320;21.920;2023-11-19T07:43:06;11.02;;;8.05;;
40367;SDS011;26075;43.320;21.920;2023-11-19T07:48:08;13.57;;;8.35;;
40367;SDS011;26075;43.320;21.920;2023-11-19T07:53:09;14.43;;;10.43;;
40367;SDS011;26075;43.320;21.920;2023-11-19T07:58:10;12.68;;;9.65;;
40367;SDS011;26075;43.320;21.920;2023-11-19T08:03:11;14.23;;;10.07;;
40367;SDS011;26075;43.320;21.920;2023-11-19T08:08:12;10.73;;;7.63;;
40367;SDS011;26075;43.320;21.920;2023-11-19T08:13:13;12.68;;;7.90;;
40367;SDS011;26075;43.320;21.920;2023-11-19T08:18:14;10.48;;;7.35;;
40367;SDS011;26075;43.320;21.920;2023-11-19T08:23:15;11.73;;;8.57;;
40367;SDS011;26075;43.320;21.920;2023-11-19T08:28:16;11.55;;;7.55;;
40367;SDS011;26075;43.320;21.920;2023-11-19T08:33:17;10.85;;;7.05;;
40367;SDS011;26075;43.320;21.920;2023-11-19T08:38:19;16.20;;;9.00;;
40367;SDS011;26075;43.320;21.920;2023-11-19T08:43:20;12.38;;;8.57;;
40367;SDS011;26075;43.320;21.920;2023-11-19T08:48:23;10.75;;;6.75;;
40367;SDS011;26075;43.320;21.920;2023-11-19T08:53:24;7.10;;;3.63;;
40367;SDS011;26075;43.320;21.920;2023-11-19T08:58:25;10.20;;;3.90;;
40367;SDS011;26075;43.320;21.920;2023-11-19T09:03:26;9.82;;;7.10;;
40367;SDS011;26075;43.320;21.920;2023-11-19T09:08:27;9.57;;;7.05;;
40367;SDS011;26075;43.320;21.920;2023-11-19T09:13:28;16.70;;;11.80;;
40367;SDS011;26075;43.320;21.920;2023-11-19T09:18:29;12.65;;;8.75;;
40367;SDS011;26075;43.320;21.920;2023-11-19T09:23:32;11.45;;;7.45;;
40367;SDS011;26075;43.320;21.920;2023-11-19T09:28:38;15.00;;;7.97;;
40367;SDS011;26075;43.320;21.920;2023-11-19T09:33:40;9.35;;;6.15;;
40367;SDS011;26075;43.320;21.920;2023-11-19T09:38:41;11.07;;;6.20;;
40367;SDS011;26075;43.320;21.920;2023-11-19T09:43:42;8.65;;;5.05;;
40367;SDS011;26075;43.320;21.920;2023-11-19T09:48:43;7.72;;;4.63;;
40367;SDS011;26075;43.320;21.920;2023-11-19T09:53:45;10.52;;;5.72;;
40367;SDS011;26075;43.320;21.920;2023-11-19T09:58:46;6.50;;;4.85;;
40367;SDS011;26075;43.320;21.920;2023-11-19T10:03:47;7.45;;;5.38;;
40367;SDS011;26075;43.320;21.920;2023-11-19T10:08:48;7.00;;;5.43;;
40367;SDS011;26075;43.320;21.920;2023-11-19T10:13:50;9.77;;;5.38;;
40367;SDS011;26075;43.320;21.920;2023-11-19T10:18:52;9.18;;;7.25;;
40367;SDS011;26075;43.320;21.920;2023-11-19T10:23:54;13.05;;;6.40;;
40367;SDS011;26075;43.320;21.920;2023-11-19T10:28:57;8.85;;;6.03;;
40367;SDS011;26075;43.320;21.920;2023-11-19T10:33:58;9.95;;;5.32;;
40367;SDS011;26075;43.320;21.920;2023-11-19T10:38:59;6.07;;;4.65;;
40367;SDS011;26075;43.320;21.920;2023-11-19T10:44:00;9.32;;;6.00;;
40367;SDS011;26075;43.320;21.920;2023-11-19T10:49:01;15.88;;;9.23;;
40367;SDS011;26075;43.320;21.920;2023-11-19T10:54:03;13.65;;;8.10;;
40367;SDS011;26075;43.320;21.920;2023-11-19T10:59:07;13.60;;;7.93;;
40367;SDS011;26075;43.320;21.920;2023-11-19T11:04:14;16.48;;;8.63;;
40367;SDS011;26075;43.320;21.920;2023-11-19T11:09:15;12.20;;;8.23;;
40367;SDS011;26075;43.320;21.920;2023-11-19T11:14:17;8.85;;;6.43;;
40367;SDS011;26075;43.320;21.920;2023-11-19T11:19:20;11.32;;;7.20;;
40367;SDS011;26075;43.320;21.920;2023-11-19T11:24:35;8.80;;;6.30;;
40367;SDS011;26075;43.320;21.920;2023-11-19T11:39:52;9.13;;;6.10;;
40367;SDS011;26075;43.320;21.920;2023-11-19T11:45:01;11.23;;;6.22;;
40367;SDS011;26075;43.320;21.920;2023-11-19T11:50:06;12.63;;;6.45;;
40367;SDS011;26075;43.320;21.920;2023-11-19T11:55:08;9.32;;;6.82;;
40367;SDS011;26075;43.320;21.920;2023-11-19T12:00:10;12.90;;;7.18;;
40367;SDS011;26075;43.320;21.920;2023-11-19T12:05:13;9.27;;;6.15;;
40367;SDS011;26075;43.320;21.920;2023-11-19T12:10:15;14.77;;;6.53;;
40367;SDS011;26075;43.320;21.920;2023-11-19T12:15:16;12.55;;;8.48;;
40367;SDS011;26075;43.320;21.920;2023-11-19T12:20:26;8.95;;;5.90;;
40367;SDS011;26075;43.320;21.920;2023-11-19T12:25:27;11.32;;;7.95;;
40367;SDS011;26075;43.320;21.920;2023-11-19T12:30:35;10.55;;;7.82;;
40367;SDS011;26075;43.320;21.920;2023-11-19T12:35:43;9.20;;;5.88;;
40367;SDS011;26075;43.320;21.920;2023-11-19T12:40:46;9.52;;;6.40;;
40367;SDS011;26075;43.320;21.920;2023-11-19T12:45:47;8.15;;;5.40;;
40367;SDS011;26075;43.320;21.920;2023-11-19T12:50:55;9.70;;;6.82;;
40367;SDS011;26075;43.320;21.920;2023-11-19T12:55:59;11.77;;;7.10;;
40367;SDS011;26075;43.320;21.920;2023-11-19T13:01:08;12.38;;;7.30;;
40367;SDS011;26075;43.320;21.920;2023-11-19T13:06:15;10.90;;;7.18;;
40367;SDS011;26075;43.320;21.920;2023-11-19T13:11:27;10.05;;;6.47;;
40367;SDS011;26075;43.320;21.920;2023-11-19T13:16:30;13.32;;;9.50;;
40367;SDS011;26075;43.320;21.920;2023-11-19T13:21:31;9.73;;;6.22;;
40367;SDS011;26075;43.320;21.920;2023-11-19T13:26:32;10.75;;;8.38;;
40367;SDS011;26075;43.320;21.920;2023-11-19T13:31:35;14.45;;;7.03;;
40367;SDS011;26075;43.320;21.920;2023-11-19T13:36:36;9.90;;;6.53;;
40367;SDS011;26075;43.320;21.920;2023-11-19T13:41:37;12.30;;;8.10;;
40367;SDS011;26075;43.320;21.920;2023-11-19T13:46:38;12.05;;;8.48;;
40367;SDS011;26075;43.320;21.920;2023-11-19T13:51:39;15.13;;;10.30;;
40367;SDS011;26075;43.320;21.920;2023-11-19T13:56:40;12.88;;;9.13;;
40367;SDS011;26075;43.320;21.920;2023-11-19T14:01:42;14.07;;;8.93;;
40367;SDS011;26075;43.320;21.920;2023-11-19T14:06:46;14.73;;;9.00;;
40367;SDS011;26075;43.320;21.920;2023-11-19T14:11:47;13.18;;;8.55;;
40367;SDS011;26075;43.320;21.920;2023-11-19T14:16:51;14.18;;;8.73;;
40367;SDS011;26075;43.320;21.920;2023-11-19T14:21:52;12.05;;;8.60;;
40367;SDS011;26075;43.320;21.920;2023-11-19T14:26:53;13.40;;;9.27;;
40367;SDS011;26075;43.320;21.920;2023-11-19T14:31:54;13.30;;;9.18;;
40367;SDS011;26075;43.320;21.920;2023-11-19T14:36:56;15.00;;;9.50;;
40367;SDS011;26075;43.320;21.920;2023-11-19T14:41:57;17.70;;;9.65;;
40367;SDS011;26075;43.320;21.920;2023-11-19T14:47:01;22.08;;;12.15;;
40367;SDS011;26075;43.320;21.920;2023-11-19T14:52:03;26.52;;;14.15;;
40367;SDS011;26075;43.320;21.920;2023-11-19T14:57:04;25.40;;;16.63;;
40367;SDS011;26075;43.320;21.920;2023-11-19T15:02:08;40.42;;;26.33;;
40367;SDS011;26075;43.320;21.920;2023-11-19T15:07:09;60.45;;;33.58;;
40367;SDS011;26075;43.320;21.920;2023-11-19T15:12:10;50.50;;;31.15;;
40367;SDS011;26075;43.320;21.920;2023-11-19T15:17:11;46.38;;;29.95;;
40367;SDS011;26075;43.320;21.920;2023-11-19T15:22:12;46.63;;;27.45;;
40367;SDS011;26075;43.320;21.920;2023-11-19T15:27:13;50.55;;;32.35;;
40367;SDS011;26075;43.320;21.920;2023-11-19T15:32:15;43.33;;;29.13;;
40367;SDS011;26075;43.320;21.920;2023-11-19T15:37:16;34.08;;;24.17;;
40367;SDS011;26075;43.320;21.920;2023-11-19T15:42:17;54.20;;;37.78;;
40367;SDS011;26075;43.320;21.920;2023-11-19T15:47:18;90.55;;;57.97;;
40367;SDS011;26075;43.320;21.920;2023-11-19T15:52:19;83.00;;;54.75;;
40367;SDS011;26075;43.320;21.920;2023-11-19T15:57:20;76.00;;;48.83;;
40367;SDS011;26075;43.320;21.920;2023-11-19T16:02:21;62.42;;;40.00;;
40367;SDS011;26075;43.320;21.920;2023-11-19T16:07:22;56.78;;;34.85;;
40367;SDS011;26075;43.320;21.920;2023-11-19T16:12:23;53.05;;;34.45;;
40367;SDS011;26075;43.320;21.920;2023-11-19T16:17:25;56.25;;;35.50;;
40367;SDS011;26075;43.320;21.920;2023-11-19T16:22:29;56.17;;;35.42;;
40367;SDS011;26075;43.320;21.920;2023-11-19T16:27:30;57.67;;;38.50;;
40367;SDS011;26075;43.320;21.920;2023-11-19T16:32:31;72.32;;;46.90;;
40367;SDS011;26075;43.320;21.920;2023-11-19T16:37:33;84.97;;;56.65;;
40367;SDS011;26075;43.320;21.920;2023-11-19T16:42:35;94.35;;;63.58;;
40367;SDS011;26075;43.320;21.920;2023-11-19T16:47:38;110.15;;;71.57;;
40367;SDS011;26075;43.320;21.920;2023-11-19T16:52:39;107.30;;;70.60;;
40367;SDS011;26075;43.320;21.920;2023-11-19T16:57:40;125.40;;;71.60;;
40367;SDS011;26075;43.320;21.920;2023-11-19T17:02:43;103.93;;;58.33;;
40367;SDS011;26075;43.320;21.920;2023-11-19T17:07:44;107.63;;;63.20;;
40367;SDS011;26075;43.320;21.920;2023-11-19T17:12:45;101.07;;;58.28;;
40367;SDS011;26075;43.320;21.920;2023-11-19T17:17:47;93.30;;;56.03;;
40367;SDS011;26075;43.320;21.920;2023-11-19T17:22:48;111.30;;;64.05;;
40367;SDS011;26075;43.320;21.920;2023-11-19T17:27:49;115.38;;;66.57;;
40367;SDS011;26075;43.320;21.920;2023-11-19T17:32:50;104.18;;;61.65;;
40367;SDS011;26075;43.320;21.920;2023-11-19T17:37:51;77.78;;;48.08;;
40367;SDS011;26075;43.320;21.920;2023-11-19T17:42:53;16.25;;;9.65;;
40367;SDS011;26075;43.320;21.920;2023-11-19T17:47:54;81.40;;;50.28;;
40367;SDS011;26075;43.320;21.920;2023-11-19T17:52:55;78.53;;;49.35;;
40367;SDS011;26075;43.320;21.920;2023-11-19T17:57:56;95.50;;;57.78;;
40367;SDS011;26075;43.320;21.920;2023-11-19T18:02:57;94.45;;;59.67;;
40367;SDS011;26075;43.320;21.920;2023-11-19T18:07:58;159.38;;;100.15;;
40367;SDS011;26075;43.320;21.920;2023-11-19T18:13:00;181.30;;;113.22;;
40367;SDS011;26075;43.320;21.920;2023-11-19T18:18:02;169.15;;;104.78;;
40367;SDS011;26075;43.320;21.920;2023-11-19T18:23:04;106.47;;;67.70;;
40367;SDS011;26075;43.320;21.920;2023-11-19T18:28:05;195.50;;;118.90;;
40367;SDS011;26075;43.320;21.920;2023-11-19T18:33:06;203.15;;;127.30;;
40367;SDS011;26075;43.320;21.920;2023-11-19T18:38:08;182.45;;;119.82;;
40367;SDS011;26075;43.320;21.920;2023-11-19T18:43:09;192.05;;;125.75;;
40367;SDS011;26075;43.320;21.920;2023-11-19T18:48:10;170.80;;;111.65;;
40367;SDS011;26075;43.320;21.920;2023-11-19T18:53:12;152.25;;;96.88;;
40367;SDS011;26075;43.320;21.920;2023-11-19T18:58:14;140.00;;;89.68;;
40367;SDS011;26075;43.320;21.920;2023-11-19T19:03:15;139.98;;;87.72;;
40367;SDS011;26075;43.320;21.920;2023-11-19T19:13:22;137.05;;;89.78;;
40367;SDS011;26075;43.320;21.920;2023-11-19T19:18:23;135.63;;;88.50;;
40367;SDS011;26075;43.320;21.920;2023-11-19T19:23:24;134.77;;;85.75;;
40367;SDS011;26075;43.320;21.920;2023-11-19T19:28:25;140.02;;;90.38;;
40367;SDS011;26075;43.320;21.920;2023-11-19T19:33:26;141.93;;;92.40;;
40367;SDS011;26075;43.320;21.920;2023-11-19T19:38:28;130.02;;;83.72;;
40367;SDS011;26075;43.320;21.920;2023-11-19T19:43:29;91.13;;;58.22;;
40367;SDS011;26075;43.320;21.920;2023-11-19T19:48:30;108.82;;;69.28;;
40367;SDS011;26075;43.320;21.920;2023-11-19T19:53:31;122.35;;;76.43;;
40367;SDS011;26075;43.320;21.920;2023-11-19T19:58:32;112.90;;;73.65;;
40367;SDS011;26075;43.320;21.920;2023-11-19T20:03:33;108.13;;;67.60;;
40367;SDS011;26075;43.320;21.920;2023-11-19T20:08:39;96.15;;;64.72;;
40367;SDS011;26075;43.320;21.920;2023-11-19T20:13:40;94.68;;;60.03;;
40367;SDS011;26075;43.320;21.920;2023-11-19T20:18:41;92.22;;;61.33;;
40367;SDS011;26075;43.320;21.920;2023-11-19T20:23:42;89.38;;;56.42;;
40367;SDS011;26075;43.320;21.920;2023-11-19T20:28:43;37.03;;;24.08;;
40367;SDS011;26075;43.320;21.920;2023-11-19T20:33:45;70.65;;;43.10;;
40367;SDS011;26075;43.320;21.920;2023-11-19T20:38:47;72.82;;;45.78;;
40367;SDS011;26075;43.320;21.920;2023-11-19T20:43:51;57.55;;;40.83;;
40367;SDS011;26075;43.320;21.920;2023-11-19T20:48:52;59.08;;;39.47;;
40367;SDS011;26075;43.320;21.920;2023-11-19T20:53:53;66.82;;;41.75;;
40367;SDS011;26075;43.320;21.920;2023-11-19T20:58:54;61.13;;;38.70;;
40367;SDS011;26075;43.320;21.920;2023-11-19T21:03:55;58.58;;;39.58;;
40367;SDS011;26075;43.320;21.920;2023-11-19T21:08:57;62.88;;;39.55;;
40367;SDS011;26075;43.320;21.920;2023-11-19T21:13:59;54.15;;;35.75;;
40367;SDS011;26075;43.320;21.920;2023-11-19T21:19:00;90.72;;;57.90;;
40367;SDS011;26075;43.320;21.920;2023-11-19T21:24:01;105.28;;;68.20;;
40367;SDS011;26075;43.320;21.920;2023-11-19T21:29:03;98.43;;;63.80;;
40367;SDS011;26075;43.320;21.920;2023-11-19T21:34:04;100.03;;;67.53;;
40367;SDS011;26075;43.320;21.920;2023-11-19T21:39:05;115.60;;;79.07;;
40367;SDS011;26075;43.320;21.920;2023-11-19T21:44:09;123.03;;;79.85;;
40367;SDS011;26075;43.320;21.920;2023-11-19T21:49:11;121.70;;;80.43;;
40367;SDS011;26075;43.320;21.920;2023-11-19T21:54:12;150.90;;;95.25;;
40367;SDS011;26075;43.320;21.920;2023-11-19T21:59:13;175.48;;;111.10;;
40367;SDS011;26075;43.320;21.920;2023-11-19T22:04:14;184.68;;;121.70;;
40367;SDS011;26075;43.320;21.920;2023-11-19T22:09:17;185.25;;;122.75;;
40367;SDS011;26075;43.320;21.920;2023-11-19T22:14:18;175.98;;;115.00;;
40367;SDS011;26075;43.320;21.920;2023-11-19T22:19:21;166.38;;;112.40;;
40367;SDS011;26075;43.320;21.920;2023-11-19T22:24:22;170.65;;;112.10;;
40367;SDS011;26075;43.320;21.920;2023-11-19T22:29:25;161.75;;;106.65;;
40367;SDS011;26075;43.320;21.920;2023-11-19T22:34:26;174.05;;;113.20;;
40367;SDS011;26075;43.320;21.920;2023-11-19T22:39:27;158.77;;;105.13;;
40367;SDS011;26075;43.320;21.920;2023-11-19T22:44:28;154.43;;;98.63;;
40367;SDS011;26075;43.320;21.920;2023-11-19T22:49:29;130.60;;;82.40;;
40367;SDS011;26075;43.320;21.920;2023-11-19T22:54:30;117.40;;;71.97;;
40367;SDS011;26075;43.320;21.920;2023-11-19T22:59:31;99.55;;;65.18;;
40367;SDS011;26075;43.320;21.920;2023-11-19T23:04:32;92.53;;;62.17;;
40367;SDS011;26075;43.320;21.920;2023-11-19T23:09:34;90.00;;;59.10;;
40367;SDS011;26075;43.320;21.920;2023-11-19T23:14:36;90.68;;;60.53;;
40367;SDS011;26075;43.320;21.920;2023-11-19T23:19:37;102.28;;;66.63;;
40367;SDS011;26075;43.320;21.920;2023-11-19T23:24:38;108.13;;;69.57;;
40367;SDS011;26075;43.320;21.920;2023-11-19T23:29:39;95.57;;;64.60;;
40367;SDS011;26075;43.320;21.920;2023-11-19T23:34:40;88.22;;;58.83;;
40367;SDS011;26075;43.320;21.920;2023-11-19T23:39:42;86.97;;;56.13;;
40367;SDS011;26075;43.320;21.920;2023-11-19T23:44:43;83.20;;;54.65;;
40367;SDS011;26075;43.320;21.920;2023-11-19T23:49:44;97.88;;;63.65;;
40367;SDS011;26075;43.320;21.920;2023-11-19T23:54:46;90.32;;;57.67;;
40367;SDS011;26075;43.320;21.920;2023-11-19T23:59:47;89.50;;;56.65;;
